Time;durP1;ratioP1;P1;durP2;ratioP2;P2;SDS_P1;SDS_P2;PMS_P1;PMS_P2;Temp;Humidity;BMP_temperature;BMP_pressure;BME280_temperature;BME280_humidity;BME280_pressure;Samples;Min_cycle;Max_cycle;Signal;HPM_P1;HPM_P2
2022/08/14 00:01:14;;;;;;;10.45;7.93;;;;;;;17.19;71.85;101014.72;5071811;28;20143;-49
2022/08/14 00:03:39;;;;;;;10.80;7.57;;;;;;;17.08;72.40;101005.13;5072576;28;20021;-46
2022/08/14 00:06:04;;;;;;;9.20;8.00;;;;;;;16.86;74.25;100998.91;5072585;28;20108;-46
2022/08/14 00:08:30;;;;;;;11.05;7.55;;;;;;;16.90;73.73;100997.16;5071444;28;20048;-46
2022/08/14 00:10:55;;;;;;;14.32;7.78;;;;;;;16.97;73.18;100999.00;5072399;28;20146;-47
2022/08/14 00:13:23;;;;;;;9.52;7.35;;;;;;;17.02;73.20;100997.28;5071667;28;20457;-47
2022/08/14 00:15:50;;;;;;;9.80;7.68;;;;;;;16.95;72.96;100998.09;5072404;28;20460;-45
2022/08/14 00:18:19;;;;;;;13.15;7.88;;;;;;;16.84;72.67;100991.94;5072263;28;20029;-46
2022/08/14 00:20:45;;;;;;;11.90;8.02;;;;;;;16.73;72.94;100990.16;5071820;28;20020;-46
2022/08/14 00:23:13;;;;;;;10.63;8.48;;;;;;;16.69;72.69;100998.78;5072204;28;20035;-47
2022/08/14 00:25:39;;;;;;;12.23;8.85;;;;;;;16.74;72.12;100985.81;5072242;28;20025;-49
2022/08/14 00:28:07;;;;;;;15.48;9.48;;;;;;;16.76;71.53;100991.91;5071785;28;20035;-46
2022/08/14 00:30:33;;;;;;;10.88;8.60;;;;;;;16.82;72.63;100980.66;5072353;28;20028;-47
2022/08/14 00:32:58;;;;;;;12.50;9.23;;;;;;;16.85;70.67;100975.44;5072501;28;20043;-47
2022/08/14 00:35:23;;;;;;;10.30;9.27;;;;;;;16.82;71.17;100965.88;5071324;28;20029;-51
2022/08/14 00:37:49;;;;;;;13.68;10.15;;;;;;;16.81;70.71;100971.97;5072142;28;20102;-47
2022/08/14 00:40:17;;;;;;;12.20;10.00;;;;;;;16.92;71.24;100966.84;5071898;28;20036;-48
2022/08/14 00:42:42;;;;;;;;;;;;;;;16.94;69.01;100959.94;5071988;28;20154;-46
2022/08/14 00:45:10;;;;;;;15.23;10.93;;;;;;;16.90;70.14;100960.72;5071977;28;20003;-46
2022/08/14 00:47:35;;;;;;;;;;;;;;;16.98;68.23;100956.47;5075691;28;20020;-45
2022/08/14 00:50:05;;;;;;;14.48;10.75;;;;;;;16.97;69.93;100953.88;5074940;28;19920;-47
2022/08/14 00:52:31;;;;;;;11.60;10.50;;;;;;;16.97;69.81;100948.66;5075615;28;20020;-46
2022/08/14 00:54:57;;;;;;;13.43;11.13;;;;;;;16.99;69.24;100946.91;5075839;28;20031;-46
2022/08/14 00:57:25;;;;;;;12.95;10.85;;;;;;;16.90;69.87;100947.72;5074782;28;20024;-49
2022/08/14 00:59:51;;;;;;;13.07;10.95;;;;;;;16.87;69.93;100943.34;5075688;28;20078;-48
2022/08/14 01:02:23;;;;;;;13.68;11.48;;;;;;;16.91;70.09;100944.28;5075110;28;20472;-47
2022/08/14 01:04:49;;;;;;;14.68;11.68;;;;;;;16.86;70.35;100938.16;5075317;28;20035;-48
2022/08/14 01:07:19;;;;;;;13.73;12.27;;;;;;;16.84;70.04;100942.50;5074992;28;20428;-45
2022/08/14 01:09:46;;;;;;;13.50;11.48;;;;;;;16.88;69.52;100928.63;5074536;28;20833;-46
2022/08/14 01:12:13;;;;;;;13.73;12.27;;;;;;;16.82;69.85;100921.63;5074995;28;20392;-46
2022/08/14 01:14:39;;;;;;;14.23;12.02;;;;;;;16.77;70.41;100921.63;5075386;28;20017;-47
2022/08/14 01:17:04;;;;;;;12.95;11.57;;;;;;;16.76;70.37;100919.03;5074669;28;20034;-46
2022/08/14 01:22:14;;;;;;;12.68;11.48;;;;;;;16.74;69.84;100919.00;5075275;28;20047;-49
2022/08/14 01:24:40;;;;;;;13.05;11.65;;;;;;;16.73;70.50;100913.78;5074565;28;20021;-46
2022/08/14 01:27:06;;;;;;;12.93;11.63;;;;;;;16.66;70.54;100906.81;5074987;28;20047;-50
2022/08/14 01:29:36;;;;;;;14.43;11.88;;;;;;;16.66;70.62;100922.44;5074920;28;20028;-46
2022/08/14 01:32:03;;;;;;;13.23;11.70;;;;;;;16.71;70.84;100908.59;5074225;28;20456;-47
2022/08/14 01:34:31;;;;;;;13.70;12.40;;;;;;;16.66;71.05;100923.28;5074528;28;20031;-46
2022/08/14 01:36:57;;;;;;;14.68;11.77;;;;;;;16.62;71.30;100903.34;5075109;28;20037;-46
2022/08/14 01:39:22;;;;;;;13.77;12.00;;;;;;;16.60;71.35;100915.44;5073981;28;20082;-48
2022/08/14 01:41:55;;;;;;;13.70;12.23;;;;;;;16.58;71.39;100912.00;5074913;28;20090;-48
2022/08/14 01:44:22;;;;;;;14.27;12.48;;;;;;;16.56;71.29;100921.50;5074601;28;20044;-47
2022/08/14 01:46:53;;;;;;;13.20;11.90;;;;;;;16.55;71.66;100915.44;5073804;28;20511;-47
2022/08/14 01:49:20;;;;;;;13.57;12.18;;;;;;;16.55;71.63;100917.16;5074464;28;20024;-46
2022/08/14 01:51:47;;;;;;;19.05;12.15;;;;;;;16.69;72.17;100909.44;5074033;28;20024;-47
2022/08/14 01:54:19;;;;;;;12.98;11.55;;;;;;;16.67;71.89;100919.84;5074365;28;20024;-46
2022/08/14 01:56:44;;;;;;;13.15;11.18;;;;;;;16.72;71.67;100912.03;5074391;28;20402;-46
2022/08/14 01:59:20;;;;;;;12.60;11.18;;;;;;;16.59;71.56;100916.31;5072382;28;20559;-45
2022/08/14 02:01:51;;;;;;;13.82;11.93;;;;;;;16.48;72.07;100912.78;5074614;28;20027;-47
2022/08/14 02:04:19;;;;;;;13.77;12.38;;;;;;;16.41;72.11;100915.34;5074302;28;20485;-46
2022/08/14 02:06:44;;;;;;;;;;;;;;;16.51;69.47;100916.25;5073823;28;20500;-48
2022/08/14 02:09:09;;;;;;;13.80;12.40;;;;;;;16.02;72.83;100897.72;5073800;28;19952;-47
2022/08/14 02:11:35;;;;;;;14.00;12.60;;;;;;;15.80;74.03;100903.59;5074180;28;20055;-46
2022/08/14 02:14:04;;;;;;;16.55;14.80;;;;;;;15.64;74.65;100902.56;5073347;28;20020;-46
2022/08/14 02:16:35;;;;;;;17.52;14.82;;;;;;;15.60;74.92;100905.13;5073600;28;20120;-46
2022/08/14 02:19:03;;;;;;;16.58;14.23;;;;;;;15.49;75.52;100907.59;5074167;28;20028;-47
2022/08/14 02:21:31;;;;;;;16.33;14.25;;;;;;;15.44;75.69;100904.97;5073050;28;20094;-47
2022/08/14 02:23:58;;;;;;;16.63;14.30;;;;;;;15.39;76.29;100904.06;5073980;28;20036;-50
2022/08/14 02:26:29;;;;;;;16.83;15.13;;;;;;;15.23;77.03;100912.53;5073492;28;20153;-45
2022/08/14 02:29:00;;;;;;;15.90;14.30;;;;;;;15.21;77.12;100904.72;5073224;28;20032;-46
2022/08/14 02:31:31;;;;;;;15.88;14.27;;;;;;;15.25;76.77;100916.03;5073480;28;20036;-47
2022/08/14 02:33:58;;;;;;;16.45;14.60;;;;;;;15.24;77.34;100901.28;5072837;28;20511;-46
2022/08/14 02:36:24;;;;;;;18.10;15.57;;;;;;;15.19;77.55;100908.16;5073560;28;20032;-45
2022/08/14 02:38:49;;;;;;;16.50;14.82;;;;;;;15.09;77.92;100907.16;5073612;28;20387;-46
2022/08/14 02:41:16;;;;;;;16.77;15.07;;;;;;;15.07;78.03;100901.97;5072558;28;20025;-46
2022/08/14 02:43:41;;;;;;;20.27;15.48;;;;;;;15.12;78.17;100896.84;5073582;28;20032;-47
2022/08/14 02:46:09;;;;;;;17.48;15.77;;;;;;;15.14;77.86;100908.09;5073265;28;20055;-47
2022/08/14 02:48:35;;;;;;;;;;;;;;;15.25;74.33;100903.91;5073246;28;20029;-47
2022/08/14 02:51:04;;;;;;;17.52;15.38;;;;;;;15.10;78.00;100908.91;5073430;28;19974;-46
2022/08/14 02:53:30;;;;;;;17.48;15.85;;;;;;;15.06;78.20;100891.56;5073097;28;20059;-45
2022/08/14 02:55:57;;;;;;;17.42;15.82;;;;;;;14.93;78.82;100895.72;5072722;28;20357;-45
2022/08/14 02:58:23;;;;;;;17.33;15.63;;;;;;;14.91;78.59;100894.81;5073216;28;20039;-45
2022/08/14 03:00:48;;;;;;;17.10;15.43;;;;;;;14.89;78.47;100899.16;5073192;28;20021;-46
2022/08/14 03:03:15;;;;;;;17.30;15.50;;;;;;;14.85;78.88;100897.34;5072316;28;20024;-48
2022/08/14 03:05:41;;;;;;;17.33;15.70;;;;;;;14.64;79.96;100888.41;5073234;28;20033;-46
2022/08/14 03:08:08;;;;;;;18.63;16.83;;;;;;;14.48;80.50;100882.13;5072770;28;20020;-47
2022/08/14 03:10:35;;;;;;;;;;;;;;;14.77;76.38;100885.16;5072622;28;20077;-46
2022/08/14 03:13:03;;;;;;;18.95;17.05;;;;;;;14.36;80.50;100877.66;5073121;28;20275;-48
2022/08/14 03:15:28;;;;;;;20.05;18.02;;;;;;;14.33;81.76;100878.47;5073031;28;20025;-47
2022/08/14 03:17:54;;;;;;;20.27;18.05;;;;;;;14.33;82.01;100882.78;5072442;28;20031;-46
2022/08/14 03:20:20;;;;;;;20.33;18.23;;;;;;;14.30;82.35;100872.38;5072850;28;20027;-45
2022/08/14 03:22:45;;;;;;;20.05;18.05;;;;;;;14.34;82.38;100868.97;5072985;28;20028;-46
2022/08/14 03:25:11;;;;;;;20.65;18.52;;;;;;;14.34;82.33;100874.16;5072173;28;20024;-45
2022/08/14 03:27:36;;;;;;;21.67;19.38;;;;;;;14.43;82.44;100882.06;5073090;28;20040;-45
2022/08/14 03:30:03;;;;;;;21.88;19.58;;;;;;;14.35;82.58;100877.63;5072776;28;20426;-45
2022/08/14 03:32:30;;;;;;;22.08;19.08;;;;;;;14.39;82.34;100867.31;5072082;28;20055;-45
2022/08/14 03:34:56;;;;;;;21.85;19.60;;;;;;;14.14;83.17;100866.94;5072875;28;20016;-45
2022/08/14 03:37:21;;;;;;;22.50;20.33;;;;;;;14.04;83.74;100869.41;5071647;28;20035;-46
2022/08/14 03:39:46;;;;;;;22.05;19.85;;;;;;;13.97;84.40;100871.03;5072962;28;20526;-45
2022/08/14 03:42:12;;;;;;;21.80;19.67;;;;;;;13.95;84.22;100870.09;5072468;28;20032;-46
2022/08/14 03:44:38;;;;;;;21.35;19.17;;;;;;;13.91;84.60;100868.31;5071939;28;20036;-45
2022/08/14 03:47:05;;;;;;;23.55;21.10;;;;;;;13.88;85.08;100858.78;5072887;28;20020;-49
2022/08/14 03:49:30;;;;;;;24.73;22.42;;;;;;;13.78;85.13;100857.75;5072463;28;20028;-45
2022/08/14 03:52:03;;;;;;;23.73;21.27;;;;;;;13.83;85.54;100856.09;5072001;28;20035;-48
2022/08/14 03:54:29;;;;;;;23.40;21.10;;;;;;;13.85;85.62;100856.13;5072571;28;20424;-46
2022/08/14 03:56:59;;;;;;;25.15;22.40;;;;;;;13.82;85.72;100858.69;5072763;28;20070;-46
2022/08/14 03:59:25;;;;;;;24.15;21.85;;;;;;;13.77;85.68;100860.31;5071727;28;20024;-46
2022/08/14 04:01:51;;;;;;;24.33;21.95;;;;;;;13.79;86.25;100866.41;5072564;28;20108;-48
2022/08/14 04:04:17;;;;;;;23.52;21.17;;;;;;;13.85;85.60;100869.06;5072306;28;20021;-46
2022/08/14 04:06:42;;;;;;;24.70;22.17;;;;;;;13.91;85.76;100868.31;5072051;28;20032;-45
2022/08/14 04:09:08;;;;;;;24.80;21.83;;;;;;;13.87;85.63;100866.53;5072314;28;20429;-45
2022/08/14 04:11:34;;;;;;;22.90;20.58;;;;;;;13.78;85.89;100873.28;5072525;28;20028;-46
2022/08/14 04:14:00;;;;;;;23.48;21.15;;;;;;;13.74;85.89;100862.88;5071824;28;20027;-47
2022/08/14 04:16:25;;;;;;;24.13;21.80;;;;;;;13.69;86.49;100862.78;5072215;28;20025;-48
2022/08/14 04:18:54;;;;;;;23.83;21.40;;;;;;;13.71;86.68;100865.38;5072384;28;20029;-50
2022/08/14 04:21:23;;;;;;;25.73;22.95;;;;;;;13.78;86.44;100857.75;5072619;28;20146;-49
2022/08/14 04:23:49;;;;;;;23.92;21.55;;;;;;;13.82;86.11;100854.34;5076363;28;20035;-47
2022/08/14 04:26:17;;;;;;;23.35;21.15;;;;;;;13.89;85.38;100855.34;5075968;28;20032;-48
2022/08/14 04:28:44;;;;;;;22.20;20.08;;;;;;;13.79;85.75;100850.88;5075379;28;20032;-49
2022/08/14 04:31:09;;;;;;;23.90;21.15;;;;;;;13.66;86.36;100849.78;5075864;28;20047;-47
2022/08/14 04:33:35;;;;;;;23.15;20.95;;;;;;;13.80;86.00;100847.41;5075126;28;20476;-49
2022/08/14 04:36:00;;;;;;;21.10;18.85;;;;;;;13.80;85.38;100850.88;5076235;28;20086;-49
2022/08/14 04:43:54;;;;;;;24.00;21.48;;;;;;;13.71;85.97;100835.19;5076172;28;20621;-49
2022/08/14 04:46:22;;;;;;;24.08;21.60;;;;;;;13.68;86.31;100835.13;5075350;28;20162;-46
2022/08/14 04:48:48;;;;;;;24.63;22.05;;;;;;;13.67;86.59;100835.97;5075087;28;20053;-46
2022/08/14 04:51:16;;;;;;;23.77;21.35;;;;;;;13.69;87.05;100836.03;5075403;28;20505;-46
2022/08/14 04:53:44;;;;;;;23.60;21.17;;;;;;;13.65;87.68;100835.09;5075497;28;20396;-45
2022/08/14 04:56:14;;;;;;;23.13;20.80;;;;;;;13.69;87.52;100831.69;5074616;28;20036;-47
2022/08/14 04:58:41;;;;;;;25.95;20.75;;;;;;;13.67;87.38;100830.78;5075798;28;20028;-46
2022/08/14 05:01:08;;;;;;;24.17;21.80;;;;;;;13.65;87.52;100828.19;5075608;28;20027;-47
2022/08/14 05:03:35;;;;;;;23.70;21.27;;;;;;;13.73;87.27;100824.84;5074956;28;20052;-46
2022/08/14 05:06:03;;;;;;;23.60;21.20;;;;;;;13.85;87.19;100829.34;5075433;28;20025;-49
2022/08/14 05:08:30;;;;;;;25.27;20.40;;;;;;;13.98;86.87;100829.59;5074985;28;20036;-46
2022/08/14 05:10:57;;;;;;;22.13;19.88;;;;;;;14.06;86.94;100821.91;5074590;28;20044;-47
2022/08/14 05:13:25;;;;;;;23.55;21.10;;;;;;;14.09;87.04;100821.09;5075185;28;20016;-47
2022/08/14 05:15:54;;;;;;;23.38;21.05;;;;;;;14.22;86.45;100827.31;5074729;28;20025;-50
2022/08/14 05:18:24;;;;;;;22.52;20.42;;;;;;;14.29;86.43;100826.53;5075015;28;20067;-49
2022/08/14 05:20:52;;;;;;;24.23;21.75;;;;;;;14.46;86.14;100822.47;5075099;28;20371;-49
2022/08/14 05:23:25;;;;;;;22.38;20.23;;;;;;;14.52;86.04;100820.81;5074232;28;20020;-49
2022/08/14 05:25:54;;;;;;;25.20;22.70;;;;;;;14.62;86.00;100827.84;5075357;28;20032;-49
2022/08/14 05:28:22;;;;;;;24.15;21.60;;;;;;;14.64;86.01;100820.97;5074701;28;20367;-47
2022/08/14 05:30:52;;;;;;;24.00;21.60;;;;;;;14.65;87.53;100825.31;5074360;28;20034;-49
2022/08/14 05:33:20;;;;;;;25.60;22.98;;;;;;;14.72;89.40;100821.06;5074592;28;20032;-49
2022/08/14 05:35:47;;;;;;;30.13;24.75;;;;;;;14.80;89.21;100814.28;5074874;28;20025;-50
2022/08/14 05:38:18;;;;;;;27.83;24.92;;;;;;;14.91;88.69;100814.38;5073795;28;20028;-48
2022/08/14 05:40:44;;;;;;;28.08;25.20;;;;;;;14.99;88.46;100812.75;5074974;28;20078;-48
2022/08/14 05:43:09;;;;;;;29.10;26.20;;;;;;;15.15;88.05;100809.44;5074404;28;20418;-49
2022/08/14 05:45:36;;;;;;;28.52;25.83;;;;;;;15.31;87.70;100827.78;5073725;28;20049;-50
2022/08/14 05:48:02;;;;;;;30.48;26.88;;;;;;;15.40;87.98;100822.69;5074645;28;20024;-49
2022/08/14 05:50:28;;;;;;;28.48;25.50;;;;;;;15.57;87.53;100811.56;5074224;28;20064;-49
2022/08/14 05:52:53;;;;;;;29.65;26.83;;;;;;;15.71;87.40;100807.38;5073644;28;20062;-49
2022/08/14 05:55:20;;;;;;;29.77;26.67;;;;;;;15.82;86.74;100806.63;5074378;28;20029;-50
2022/08/14 05:57:56;;;;;;;32.65;26.95;;;;;;;15.95;86.15;100813.63;5074251;28;20052;-50
2022/08/14 06:00:24;;;;;;;30.20;27.00;;;;;;;16.04;86.41;100812.81;5074134;28;20074;-47
2022/08/14 06:02:49;;;;;;;;;;;;;;;16.10;84.43;100813.72;5074695;28;20028;-46
2022/08/14 06:05:15;;;;;;;30.40;27.40;;;;;;;16.36;84.38;100814.72;5073234;28;19956;-48
2022/08/14 06:07:40;;;;;;;32.83;28.20;;;;;;;16.56;82.71;100815.69;5074347;28;20044;-50
2022/08/14 06:10:08;;;;;;;30.73;27.20;;;;;;;16.77;81.14;100812.31;5074240;28;20116;-48
2022/08/14 06:12:34;;;;;;;30.38;27.13;;;;;;;16.85;81.37;100809.75;5073355;28;20025;-46
2022/08/14 06:14:59;;;;;;;32.55;26.50;;;;;;;17.05;80.30;100807.22;5074201;28;20028;-47
2022/08/14 06:17:25;;;;;;;29.92;26.92;;;;;;;17.13;81.50;100814.19;5073849;28;20028;-50
2022/08/14 06:19:51;;;;;;;30.25;27.17;;;;;;;17.24;80.98;100813.31;5073186;28;20039;-50
2022/08/14 06:22:16;;;;;;;30.33;26.85;;;;;;;17.38;80.20;100808.13;5073678;28;20036;-45
2022/08/14 06:24:42;;;;;;;29.40;26.40;;;;;;;17.52;79.45;100813.38;5073840;28;20444;-49
2022/08/14 06:27:07;;;;;;;29.83;26.83;;;;;;;17.65;78.63;100813.34;5073077;28;20063;-50
2022/08/14 06:29:33;;;;;;;29.77;26.77;;;;;;;17.87;76.62;100814.19;5073684;28;20380;-49
2022/08/14 06:31:58;;;;;;;29.70;26.67;;;;;;;18.06;77.19;100805.53;5073738;28;20093;-47
2022/08/14 06:34:24;;;;;;;29.83;26.67;;;;;;;18.18;77.48;100803.75;5072603;28;20475;-50
2022/08/14 06:36:49;;;;;;;27.90;24.92;;;;;;;18.33;75.88;100803.69;5073910;28;20032;-49
2022/08/14 06:39:14;;;;;;;28.05;25.13;;;;;;;18.51;74.99;100801.91;5073546;28;20075;-48
2022/08/14 06:41:40;;;;;;;28.33;25.38;;;;;;;18.67;73.29;100795.75;5072935;28;20025;-47
2022/08/14 06:44:06;;;;;;;28.60;25.67;;;;;;;18.91;72.53;100792.19;5072938;28;20025;-46
2022/08/14 06:46:32;;;;;;;28.35;25.33;;;;;;;19.11;72.38;100798.13;5073283;28;20063;-47
2022/08/14 06:48:57;;;;;;;29.00;24.95;;;;;;;19.22;72.09;100796.31;5072630;28;20395;-47
2022/08/14 06:51:22;;;;;;;27.33;24.25;;;;;;;19.34;71.33;100795.38;5073262;28;20017;-48
2022/08/14 06:53:48;;;;;;;29.70;25.73;;;;;;;19.52;70.40;100790.00;5073559;28;20467;-48
2022/08/14 06:56:13;;;;;;;27.35;24.52;;;;;;;19.66;70.21;100795.09;5072265;28;20032;-48
2022/08/14 06:58:38;;;;;;;26.25;23.48;;;;;;;19.90;69.81;100790.56;5073165;28;20032;-49
2022/08/14 07:06:32;;;;;;;27.10;24.17;;;;;;;20.20;67.95;100778.88;5073590;28;20132;-47
2022/08/14 07:08:57;;;;;;;29.25;24.40;;;;;;;20.29;68.12;100784.91;5072402;28;20559;-48
2022/08/14 07:11:22;;;;;;;26.35;23.17;;;;;;;20.55;67.51;100781.97;5072847;28;20020;-47
2022/08/14 07:13:48;;;;;;;24.55;21.50;;;;;;;20.67;65.89;100771.34;5073033;28;20025;-48
2022/08/14 07:16:13;;;;;;;24.20;21.80;;;;;;;20.78;65.65;100780.84;5072032;28;20066;-49
2022/08/14 07:18:40;;;;;;;26.50;20.35;;;;;;;21.00;64.70;100782.25;5072932;28;20039;-50
2022/08/14 07:21:06;;;;;;;22.67;20.30;;;;;;;21.04;64.69;100773.47;5072959;28;20020;-46
2022/08/14 07:23:32;;;;;;;23.00;20.50;;;;;;;21.26;64.19;100777.50;5072269;28;20021;-50
2022/08/14 07:26:00;;;;;;;22.00;18.85;;;;;;;21.27;65.19;100774.00;5073028;28;20119;-49
2022/08/14 07:28:33;;;;;;;20.95;18.75;;;;;;;21.63;64.05;100783.03;5072578;28;20034;-49
2022/08/14 07:31:02;;;;;;;24.52;18.38;;;;;;;21.73;62.34;100782.88;5072364;28;20064;-49
2022/08/14 07:33:30;;;;;;;18.40;16.60;;;;;;;21.86;62.51;100777.38;5072508;28;20546;-48
2022/08/14 07:35:58;;;;;;;19.60;15.98;;;;;;;22.10;60.89;100787.44;5073007;28;20028;-50
2022/08/14 07:38:26;;;;;;;20.40;14.75;;;;;;;22.14;60.97;100784.75;5071822;28;20107;-48
2022/08/14 07:40:52;;;;;;;16.20;13.85;;;;;;;22.29;60.13;100783.56;5072861;28;20104;-50
2022/08/14 07:43:17;;;;;;;17.08;14.45;;;;;;;22.42;59.13;100773.69;5072171;28;20161;-46
2022/08/14 07:45:43;;;;;;;18.05;14.35;;;;;;;22.57;59.38;100772.53;5072433;28;20040;-49
2022/08/14 07:48:08;;;;;;;19.02;14.32;;;;;;;22.71;58.57;100771.34;5072648;28;20016;-48
2022/08/14 07:50:34;;;;;;;19.75;14.25;;;;;;;22.82;59.93;100772.81;5071870;28;20174;-45
2022/08/14 07:53:00;;;;;;;14.98;13.18;;;;;;;22.89;59.77;100770.06;5072784;28;20091;-49
2022/08/14 07:55:26;;;;;;;19.13;13.50;;;;;;;23.06;59.02;100770.53;5072379;28;20024;-48
2022/08/14 07:57:52;;;;;;;15.23;12.73;;;;;;;23.06;58.42;100781.06;5075894;28;20162;-48
2022/08/14 08:00:21;;;;;;;13.30;11.82;;;;;;;23.17;58.28;100772.94;5076632;28;20500;-49
2022/08/14 08:02:48;;;;;;;15.00;12.02;;;;;;;23.30;56.65;100774.34;5076783;28;20033;-48
2022/08/14 08:05:15;;;;;;;13.45;12.05;;;;;;;23.39;55.70;100775.91;5075764;28;20020;-46
2022/08/14 08:07:42;;;;;;;15.15;12.77;;;;;;;23.62;56.11;100779.72;5076627;28;20023;-50
2022/08/14 08:10:31;;;;;;;13.95;11.35;;;;;;;23.65;54.13;100782.25;5076171;28;20054;-48
2022/08/14 08:13:04;;;;;;;12.75;10.27;;;;;;;23.98;53.48;100784.94;5075864;28;20048;-50
2022/08/14 08:15:36;;;;;;;12.25;9.82;;;;;;;24.08;53.46;100777.66;5076400;28;20571;-48
2022/08/14 08:18:04;;;;;;;15.55;11.43;;;;;;;24.24;54.33;100786.84;5076486;28;20020;-46
2022/08/14 08:20:32;;;;;;;11.85;9.32;;;;;;;24.32;52.84;100781.34;5075170;28;20036;-47
2022/08/14 08:22:58;;;;;;;11.05;9.63;;;;;;;24.44;53.69;100775.75;5076476;28;20021;-46
2022/08/14 08:25:31;;;;;;;12.20;10.73;;;;;;;24.58;54.28;100770.06;5076119;28;20089;-47
2022/08/14 08:28:07;;;;;;;11.75;9.93;;;;;;;24.77;54.42;100772.16;5076344;28;20021;-47
2022/08/14 08:30:33;;;;;;;17.43;11.23;;;;;;;24.82;53.12;100760.56;5076003;28;20032;-48
2022/08/14 08:33:00;;;;;;;13.65;10.13;;;;;;;24.95;52.89;100757.53;5075320;28;20044;-49
2022/08/14 08:35:29;;;;;;;12.40;10.20;;;;;;;25.13;53.46;100753.44;5075938;28;20047;-50
2022/08/14 08:38:04;;;;;;;16.80;11.82;;;;;;;25.23;54.31;100760.16;5076186;28;20024;-46
2022/08/14 08:40:35;;;;;;;15.95;10.18;;;;;;;25.49;52.76;100755.81;5074990;28;20077;-50
2022/08/14 08:43:05;;;;;;;15.20;10.27;;;;;;;25.72;52.33;100768.22;5075940;28;20028;-50
2022/08/14 08:45:33;;;;;;;16.52;11.63;;;;;;;25.68;50.78;100771.00;5075469;28;20056;-50
2022/08/14 08:47:58;;;;;;;13.43;11.73;;;;;;;25.80;50.92;100773.22;5075169;28;20032;-50
2022/08/14 08:50:29;;;;;;;17.63;11.82;;;;;;;25.94;51.29;100767.44;5075595;28;20025;-51
2022/08/14 08:52:56;;;;;;;13.13;10.35;;;;;;;26.03;51.66;100767.13;5075843;28;20020;-51
2022/08/14 08:55:26;;;;;;;17.48;9.75;;;;;;;26.22;51.69;100767.34;5074809;28;20063;-50
2022/08/14 08:57:57;;;;;;;12.23;10.85;;;;;;;26.33;49.98;100764.28;5075681;28;20103;-49
2022/08/14 09:00:23;;;;;;;13.02;10.38;;;;;;;26.47;49.67;100755.84;5075568;28;20059;-51
2022/08/14 09:03:00;;;;;;;12.67;10.60;;;;;;;26.60;48.92;100754.44;5074663;28;20435;-47
2022/08/14 09:05:26;;;;;;;12.35;9.88;;;;;;;26.83;50.17;100752.69;5075421;28;20074;-51
2022/08/14 09:07:51;;;;;;;14.30;10.00;;;;;;;27.02;47.13;100754.59;5074359;28;20024;-52
2022/08/14 09:10:17;;;;;;;10.77;9.02;;;;;;;27.23;47.52;100756.34;5075012;28;20029;-52
2022/08/14 09:12:42;;;;;;;12.85;9.57;;;;;;;27.34;47.57;100753.25;5075446;28;20024;-48
2022/08/14 09:15:08;;;;;;;13.02;9.85;;;;;;;27.40;45.25;100744.25;5074531;28;20382;-48
2022/08/14 09:17:34;;;;;;;11.27;9.18;;;;;;;27.55;46.70;100742.72;5075117;28;20070;-51
2022/08/14 09:20:00;;;;;;;11.35;8.70;;;;;;;27.71;46.21;100745.56;5075382;28;20414;-47
2022/08/14 09:22:26;;;;;;;11.40;9.68;;;;;;;27.77;44.62;100738.22;5074260;28;20021;-48
2022/08/14 09:24:52;;;;;;;12.00;9.07;;;;;;;28.00;43.68;100740.75;5075143;28;20021;-48
2022/08/14 09:27:17;;;;;;;12.38;9.27;;;;;;;28.18;43.05;100734.63;5074647;28;20021;-51
2022/08/14 09:29:43;;;;;;;12.30;9.40;;;;;;;28.35;43.46;100733.00;5074152;28;20041;-51
2022/08/14 09:32:15;;;;;;;13.43;9.05;;;;;;;28.50;43.57;100734.91;5075093;28;20032;-50
2022/08/14 09:35:02;;;;;;;9.60;8.05;;;;;;;28.65;42.74;100735.13;5074879;28;20103;-51
2022/08/14 09:38:05;;;;;;;9.38;7.45;;;;;;;28.98;43.05;100734.44;5073973;28;20020;-48
2022/08/14 09:40:59;;;;;;;11.98;7.97;;;;;;;29.41;41.80;100732.28;5074872;28;20028;-47
2022/08/14 09:44:05;;;;;;;11.65;7.78;;;;;;;29.63;42.09;100728.53;5073932;28;20396;-50
2022/08/14 09:46:30;;;;;;;9.40;8.15;;;;;;;29.63;39.31;100733.84;5074528;28;20148;-49
2022/08/14 09:49:01;;;;;;;13.73;9.05;;;;;;;29.82;40.22;100720.44;5074749;28;20442;-50
2022/08/14 09:51:28;;;;;;;11.25;8.63;;;;;;;30.23;40.02;100712.06;5073755;28;20149;-50
2022/08/14 09:54:10;;;;;;;10.85;8.00;;;;;;;30.31;38.80;100711.63;5074513;28;20479;-51
2022/08/14 09:56:50;;;;;;;8.13;6.38;;;;;;;30.93;38.04;100713.50;5074571;28;20119;-48
2022/08/14 09:59:21;;;;;;;9.32;6.60;;;;;;;31.13;35.79;100699.91;5073318;28;20426;-51
2022/08/14 10:01:47;;;;;;;9.23;6.95;;;;;;;31.74;34.98;100697.16;5074616;28;20021;-49
2022/08/14 10:04:23;;;;;;;8.82;5.88;;;;;;;32.32;33.53;100705.97;5073259;28;20069;-51
2022/08/14 10:06:49;;;;;;;7.20;6.18;;;;;;;32.86;32.59;100698.09;5074220;28;20532;-51
2022/08/14 10:09:14;;;;;;;8.88;5.68;;;;;;;33.10;32.65;100685.75;5073878;28;20490;-50
2022/08/14 10:11:41;;;;;;;18.55;6.78;;;;;;;33.96;30.94;100688.78;5073583;28;20052;-48
2022/08/14 10:14:15;;;;;;;10.68;6.32;;;;;;;34.78;30.37;100686.34;5074146;28;20031;-52
2022/08/14 10:16:47;;;;;;;8.32;6.28;;;;;;;34.83;30.18;100682.47;5074113;28;20024;-52
2022/08/14 10:19:14;;;;;;;7.97;6.55;;;;;;;34.95;28.35;100686.91;5072228;28;20032;-51
2022/08/14 10:21:55;;;;;;;7.90;5.90;;;;;;;35.58;28.84;100679.38;5073920;28;20475;-52
2022/08/14 10:24:26;;;;;;;9.55;5.85;;;;;;;36.17;28.20;100671.19;5073875;28;20021;-52
2022/08/14 10:26:56;;;;;;;8.98;5.75;;;;;;;36.16;27.02;100672.16;5073179;28;20154;-52
2022/08/14 10:29:34;;;;;;;9.35;5.78;;;;;;;36.16;27.97;100673.00;5073555;28;20053;-53
2022/08/14 10:32:00;;;;;;;7.40;6.03;;;;;;;35.30;27.53;100669.09;5073808;28;20028;-52
2022/08/14 10:34:31;;;;;;;6.87;5.77;;;;;;;35.85;28.10;100671.94;5073054;28;20173;-53
2022/08/14 10:37:11;;;;;;;6.78;5.63;;;;;;;36.61;28.27;100666.69;5073854;28;20027;-52
2022/08/14 10:39:38;;;;;;;7.05;5.13;;;;;;;36.50;26.34;100659.53;5072968;28;20078;-52
2022/08/14 10:42:07;;;;;;;8.73;4.70;;;;;;;37.46;24.67;100650.56;5073482;28;20048;-52
2022/08/14 10:44:45;;;;;;;5.57;4.15;;;;;;;37.99;24.95;100654.91;5073396;28;20021;-50
2022/08/14 10:47:11;;;;;;;6.22;4.85;;;;;;;38.25;23.79;100644.44;5072715;28;20042;-51
2022/08/14 10:49:38;;;;;;;;;;;;;;;38.89;25.15;100642.19;5074054;28;20033;-53
2022/08/14 10:52:06;;;;;;;6.00;4.80;;;;;;;38.27;23.93;100639.81;5073484;28;19912;-52
2022/08/14 10:54:44;;;;;;;9.02;4.47;;;;;;;38.40;22.79;100633.28;5072600;28;20090;-53
2022/08/14 10:57:24;;;;;;;5.82;4.60;;;;;;;38.27;23.60;100645.19;5073039;28;20482;-53
2022/08/14 11:00:14;;;;;;;7.20;3.97;;;;;;;38.40;22.96;100649.44;5073425;28;20028;-52
2022/08/14 11:02:40;;;;;;;7.50;4.35;;;;;;;38.27;21.68;100637.13;5073231;28;20016;-52
2022/08/14 11:05:11;;;;;;;6.43;4.15;;;;;;;39.08;20.60;100626.97;5072999;28;20468;-54
2022/08/14 11:07:39;;;;;;;5.35;3.60;;;;;;;38.50;20.17;100635.00;5072984;28;20033;-52
2022/08/14 11:10:11;;;;;;;5.10;3.50;;;;;;;38.56;20.34;100633.56;5073372;28;20035;-52
2022/08/14 11:12:46;;;;;;;4.82;3.28;;;;;;;39.24;20.42;100627.25;5073249;28;20099;-53
2022/08/14 11:15:27;;;;;;;9.43;3.50;;;;;;;39.61;20.61;100629.06;5072206;28;20027;-53
2022/08/14 11:17:55;;;;;;;6.13;4.18;;;;;;;38.88;20.20;100632.44;5072987;28;20498;-53
2022/08/14 11:20:29;;;;;;;6.22;4.20;;;;;;;38.00;20.90;100627.84;5072874;28;20028;-53
2022/08/14 11:22:59;;;;;;;5.47;3.80;;;;;;;37.58;21.71;100633.38;5072363;28;20031;-52
2022/08/14 11:25:28;;;;;;;7.28;3.97;;;;;;;37.43;22.39;100623.97;5072670;28;20361;-53
2022/08/14 11:27:55;;;;;;;9.32;4.10;;;;;;;37.70;21.73;100623.34;5072883;28;20028;-53
2022/08/14 11:30:24;;;;;;;6.60;3.88;;;;;;;38.92;21.08;100617.66;5071549;28;20092;-52
2022/08/14 11:32:50;;;;;;;5.80;4.00;;;;;;;39.13;20.84;100613.91;5073009;28;20025;-53